ADDS METAR Data INFO
IDs: Format: Raw Decoded Include TAF

Data at: 1957 UTC 15 Dec 2017

KPQL 151953Z 02008KT 10SM FEW075 BKN095 OVC120 09/02 A3016 RMK AO2 RAE10 SLP214 P0000 T00940017
KPQL 151853Z 36011KT 10SM -RA OVC100 09/02 A3019 RMK AO2 RAB28 SLP224 P0000 T00890017
KPQL 151753Z 36010KT 10SM BKN080 OVC090 09/03 A3020 RMK AO2 RAE03 SLP227 P0000 60001 T00940028 10094 20072 50007
KPQL 151653Z 33005KT 10SM -RA OVC100 08/04 A3023 RMK AO2 SLP238 P0001 T00830039
KPQL 151553Z 36006KT 10SM -RA OVC100 08/03 A3022 RMK AO2 RAB1458 SLP235 P0000 T00780033
KPQL 151453Z 02008KT 10SM FEW050 OVC110 08/02 A3018 RMK AO2 SLP220 T00830022 53032
KPQL 151353Z 36008KT 10SM BKN095 OVC120 08/03 A3015 RMK AO2 SLP210 T00830033
KPQL 151253Z 01011KT 10SM CLR 08/04 A3010 RMK AO2 SLP194 T00830044
KPQL 151153Z AUTO 35008KT 10SM CLR 09/05 A3008 RMK AO2 SLP188 T00890050 10094 20061 53011
KPQL 151053Z AUTO 34004KT 10SM CLR 09/06 A3005 RMK AO2 SLP176 T00890061
KPQL 150953Z AUTO 00000KT 10SM CLR 09/07 A3004 RMK AO2 SLP175 T00890067
KPQL 150853Z AUTO 36003KT 5SM BR CLR 08/07 A3005 RMK AO2 SLP177 T00780067 50003
KPQL 150753Z AUTO 00000KT 5SM BR BKN065 08/07 A3005 RMK AO2 SLP177 T00830067
KPQL 150653Z AUTO 00000KT 5SM BR CLR 07/06 A3005 RMK AO2 SLP175 T00720056
KPQL 150553Z AUTO 00000KT 4SM BR CLR 06/06 A3004 RMK AO2 SLP173 T00610056 10100 20061 401830022 57002
KPQL 150548Z AUTO 00000KT 5SM BR CLR 07/05 A3004 RMK AO2
KPQL 150523Z AUTO 00000KT 2 1/2SM BR CLR 07/06 A3005 RMK AO2 T00670056
KPQL 150453Z AUTO 00000KT 5SM BR CLR 08/06 A3005 RMK AO2 SLP175 T00780061
KPQL 150438Z AUTO 00000KT 3SM BR CLR 07/06 A3004 RMK AO2 T00670056
KPQL 150430Z AUTO 00000KT 1 3/4SM BR CLR 07/06 A3004 RMK AO2 T00720061
KPQL 150353Z AUTO 00000KT 7SM CLR 08/07 A3005 RMK AO2 SLP175 T00780067
KPQL 150253Z AUTO 00000KT 9SM CLR 08/07 A3004 RMK AO2 SLP175 T00830072 51012
KPQL 150153Z 00000KT 8SM CLR 08/07 A3002 RMK AO2 SLP168 T00830067
KPQL 150053Z 35003KT 10SM CLR 09/07 A3003 RMK AO2 SLP171 T00940072
KPQL 142353Z 00000KT 10SM CLR 10/08 A3001 RMK AO2 SLP164 T01000078 10183 20083 53009
KPQL 142253Z 00000KT 10SM CLR 12/08 A2998 RMK AO2 SLP152 T01220083
KPQL 142153Z 00000KT 10SM CLR 13/07 A2998 RMK AO2 SLP152 T01330072
KPQL 142053Z 21003KT 10SM CLR 14/07 A2998 RMK AO2 SLP154 T01440067 55005 $
KPQL 141953Z 19005KT 10SM CLR 16/06 A2997 RMK AO2 SLP151 T01560056 $
KPQL 141853Z 21003KT 10SM CLR 17/04 A2999 RMK AO2 SLP155 T01670039 $
KPQL 141753Z 24004KT 10SM CLR 17/02 A3000 RMK AO2 SLP160 T01720022 10183 20028 58011 $
KPQL 141653Z 23004KT 10SM CLR 16/05 A3003 RMK AO2 SLP170 T01610050 $
KPQL 141553Z 25004KT 10SM 13/08 A3004 RMK AO2 SLP172 T01280078 $
KPQL 141453Z 00000KT 7SM CLR 09/07 A3003 RMK AO2 SLP171 T00890072 51013
KPQL 141353Z 00000KT 9SM CLR 05/03 A3002 RMK AO2 SLP167 T00500033
KPQL 141253Z 00000KT 5SM BR CLR 03/02 A3001 RMK AO2 SLP162 T00330017
KPQL 141153Z AUTO 35003KT 10SM CLR 03/02 A2999 RMK AO2 SLP158 T00280017 10094 20022 53003
KPQL 141053Z AUTO 00000KT 6SM BR CLR 03/02 A2998 RMK AO2 SLP154 T00280017
KPQL 141012Z AUTO 00000KT 4SM BR CLR 04/02 A2998 RMK AO2 T00390022
KPQL 141002Z AUTO 00000KT 2SM BR CLR 03/02 A2998 RMK AO2 T00280017
KPQL 140953Z AUTO 00000KT 4SM BR CLR 02/01 A2997 RMK AO2 SLP151 T00220011
KPQL 140948Z AUTO 00000KT 3SM BR CLR 02/02 A2998 RMK AO2
KPQL 140939Z AUTO 00000KT 1 3/4SM BR CLR 03/02 A2998 RMK AO2 VIS 1/2V5 T00280017
KPQL 140923Z AUTO 00000KT 3SM BR CLR 03/03 A2999 RMK AO2 T00330028
KPQL 140913Z AUTO 00000KT 1 3/4SM BR CLR 04/03 A2998 RMK AO2 VIS 1/2V5 T00390028
KPQL 140904Z AUTO 00000KT 8SM CLR 04/03 A2998 RMK AO2 T00390033
KPQL 140853Z AUTO 00000KT 2SM BR CLR 04/03 A2998 RMK AO2 SLP155 T00440028 55004